Time;durP1;ratioP1;P1;durP2;ratioP2;P2;SDS_P1;SDS_P2;PMS_P1;PMS_P2;Temp;Humidity;BMP_temperature;BMP_pressure;BME280_temperature;BME280_humidity;BME280_pressure;Samples;Min_cycle;Max_cycle;Signal;HPM_P1;HPM_P2
2023/10/30 00:01:32;;;;;;;10.95;4.78;;;;;;;7.81;99.09;93482.25;5073041;28;20508;-76
2023/10/30 00:03:58;;;;;;;9.45;5.30;;;;;;;8.01;98.86;93500.34;5066548;28;20159;-76
2023/10/30 00:06:26;;;;;;;8.98;4.28;;;;;;;7.80;99.92;93483.25;5072418;28;20044;-76
2023/10/30 00:08:53;;;;;;;7.53;4.13;;;;;;;7.83;100.00;93482.88;5069259;28;20044;-76
2023/10/30 00:11:20;;;;;;;5.65;3.08;;;;;;;7.84;100.00;93497.25;5070788;28;20064;-76
2023/10/30 00:13:47;;;;;;;5.75;3.10;;;;;;;7.83;100.00;93493.13;5070399;28;20044;-76
2023/10/30 00:16:13;;;;;;;5.72;2.80;;;;;;;7.86;100.00;93488.41;5068318;28;20165;-76
2023/10/30 00:18:41;;;;;;;4.82;2.63;;;;;;;7.91;100.00;93499.88;5068346;28;20109;-76
2023/10/30 00:21:07;;;;;;;4.10;2.15;;;;;;;7.85;100.00;93491.16;5069293;28;20448;-76
2023/10/30 00:23:36;;;;;;;5.07;2.80;;;;;;;7.92;100.00;93501.44;5070838;28;20492;-76
2023/10/30 00:26:03;;;;;;;5.55;2.45;;;;;;;7.88;100.00;93504.34;5067582;28;20053;-76
2023/10/30 00:28:31;;;;;;;3.58;2.08;;;;;;;7.78;100.00;93498.75;5066592;28;20048;-76
2023/10/30 00:30:59;;;;;;;5.55;2.05;;;;;;;7.59;100.00;93480.53;5071092;28;20127;-76
2023/10/30 00:33:26;;;;;;;5.97;2.65;;;;;;;7.60;100.00;93491.56;5067987;28;20044;-76
2023/10/30 00:35:52;;;;;;;7.90;2.70;;;;;;;7.45;100.00;93494.97;5068470;28;20045;-76
2023/10/30 00:38:19;;;;;;;7.05;2.83;;;;;;;7.39;100.00;93492.34;5071383;28;20056;-76
2023/10/30 00:40:47;;;;;;;6.38;3.20;;;;;;;7.41;100.00;93491.19;5062238;28;20052;-76
2023/10/30 00:43:14;;;;;;;4.97;2.60;;;;;;;7.34;100.00;93480.13;5070917;28;20056;-76
2023/10/30 00:45:42;;;;;;;7.55;2.88;;;;;;;7.41;100.00;93501.41;5067563;28;20052;-76
2023/10/30 00:48:09;;;;;;;6.00;2.70;;;;;;;7.39;100.00;93495.69;5068689;28;20048;-76
2023/10/30 00:50:36;;;;;;;6.25;2.78;;;;;;;7.43;100.00;93493.56;5070573;28;20052;-76
2023/10/30 00:53:03;;;;;;;5.50;2.78;;;;;;;7.17;100.00;93456.59;5060530;28;20041;-77
2023/10/30 00:55:29;;;;;;;6.90;3.17;;;;;;;7.44;100.00;93493.38;5070205;28;20114;-76
2023/10/30 00:57:57;;;;;;;8.68;3.08;;;;;;;7.16;100.00;93447.31;5069171;28;20106;-76
2023/10/30 01:00:24;;;;;;;6.45;2.97;;;;;;;7.47;100.00;93490.47;5071619;28;20044;-76
2023/10/30 01:02:51;;;;;;;5.43;2.72;;;;;;;7.49;100.00;93488.53;5063205;28;20052;-77
2023/10/30 01:05:17;;;;;;;7.78;3.30;;;;;;;7.48;100.00;93486.94;5061964;28;20118;-77
2023/10/30 01:07:44;;;;;;;6.90;3.05;;;;;;;7.38;100.00;93483.91;5070449;28;20114;-78
2023/10/30 01:10:11;;;;;;;7.85;3.20;;;;;;;7.43;100.00;93488.44;5067656;28;20504;-77
2023/10/30 01:12:38;;;;;;;9.02;3.00;;;;;;;7.39;100.00;93493.16;5069931;28;20048;-76
2023/10/30 01:15:07;;;;;;;5.82;2.78;;;;;;;7.32;100.00;93495.63;5068416;28;20757;-76
2023/10/30 01:17:34;;;;;;;6.80;2.75;;;;;;;7.28;100.00;93491.06;5067179;28;20121;-76
2023/10/30 01:20:02;;;;;;;6.63;2.97;;;;;;;7.21;100.00;93489.25;5065355;28;20048;-77
2023/10/30 01:22:29;;;;;;;9.82;2.60;;;;;;;7.27;100.00;93486.94;5068085;28;20044;-77
2023/10/30 01:24:56;;;;;;;7.18;3.13;;;;;;;7.18;100.00;93486.28;5067675;28;20056;-77
2023/10/30 01:27:23;;;;;;;5.18;2.53;;;;;;;7.15;100.00;93486.63;5065825;28;20055;-77
2023/10/30 01:29:50;;;;;;;6.97;3.25;;;;;;;7.05;100.00;93479.25;5070070;28;20045;-76
2023/10/30 01:32:18;;;;;;;10.65;4.35;;;;;;;7.08;100.00;93484.78;5067397;28;20052;-77
2023/10/30 01:34:45;;;;;;;8.95;3.53;;;;;;;7.00;100.00;93474.69;5067071;28;20048;-77
2023/10/30 01:37:11;;;;;;;5.78;3.10;;;;;;;6.95;100.00;93464.22;5062294;28;20048;-76
2023/10/30 01:39:39;;;;;;;7.45;3.10;;;;;;;7.06;100.00;93484.19;5068528;28;20546;-77
2023/10/30 01:42:06;;;;;;;8.43;4.20;;;;;;;6.99;100.00;93477.44;5067863;28;20635;-77
2023/10/30 01:44:33;;;;;;;8.35;4.00;;;;;;;7.03;100.00;93484.53;5067087;28;20052;-77
2023/10/30 01:46:59;;;;;;;9.95;4.40;;;;;;;7.09;100.00;93483.81;5066287;28;20094;-77
2023/10/30 01:49:27;;;;;;;11.18;5.13;;;;;;;7.00;100.00;93484.91;5063483;28;20353;-77
2023/10/30 01:51:54;;;;;;;9.23;4.40;;;;;;;6.99;100.00;93490.19;5063746;28;20109;-77
2023/10/30 01:54:21;;;;;;;11.40;4.75;;;;;;;7.01;100.00;93491.59;5066703;28;20048;-77
2023/10/30 01:56:48;;;;;;;9.20;4.00;;;;;;;6.94;100.00;93485.63;5067977;28;20056;-77
2023/10/30 01:59:15;;;;;;;11.00;4.88;;;;;;;6.97;100.00;93484.47;5073526;28;20044;-77
2023/10/30 02:01:41;;;;;;;9.95;4.65;;;;;;;6.76;100.00;93457.94;5066564;28;20098;-78
2023/10/30 02:04:08;;;;;;;13.98;5.93;;;;;;;6.88;100.00;93481.22;5062926;28;20048;-76
2023/10/30 02:06:36;;;;;;;13.18;6.65;;;;;;;6.90;100.00;93485.19;5067066;28;20483;-77
2023/10/30 02:09:03;;;;;;;15.43;8.10;;;;;;;6.85;100.00;93492.59;5067289;28;20048;-77
2023/10/30 02:11:30;;;;;;;19.98;11.27;;;;;;;6.94;100.00;93494.06;5066675;28;20052;-77
2023/10/30 02:13:57;;;;;;;21.50;11.25;;;;;;;6.65;100.00;93441.31;5066355;28;20048;-77
2023/10/30 02:16:24;;;;;;;19.30;10.25;;;;;;;7.03;100.00;93489.66;5058974;28;20057;-76
2023/10/30 02:18:51;;;;;;;20.02;10.15;;;;;;;6.93;100.00;93489.94;5067047;28;20106;-76
2023/10/30 02:21:18;;;;;;;17.05;8.07;;;;;;;6.85;100.00;93484.16;5066447;28;20049;-76
2023/10/30 02:23:46;;;;;;;14.95;7.30;;;;;;;6.89;100.00;93493.03;5068042;28;20056;-76
2023/10/30 02:26:14;;;;;;;19.92;8.52;;;;;;;6.81;100.00;93484.50;5065573;28;20568;-77
2023/10/30 02:28:40;;;;;;;19.75;8.68;;;;;;;6.89;100.00;93493.81;5062471;28;20052;-77
2023/10/30 02:31:07;;;;;;;20.58;9.18;;;;;;;6.88;100.00;93492.25;5067077;28;20094;-77
2023/10/30 02:33:34;;;;;;;21.50;10.40;;;;;;;6.79;100.00;93485.66;5067752;28;20125;-77
2023/10/30 02:36:01;;;;;;;24.85;10.90;;;;;;;6.80;100.00;93490.59;5071533;28;20043;-77
2023/10/30 02:38:27;;;;;;;25.77;11.73;;;;;;;6.75;100.00;93492.88;5073020;28;20394;-77
2023/10/30 02:40:54;;;;;;;26.13;12.05;;;;;;;6.54;100.00;93480.84;5063730;28;20118;-77
2023/10/30 02:43:22;;;;;;;30.17;13.63;;;;;;;6.60;100.00;93487.00;5070297;28;20052;-78
2023/10/30 02:45:50;;;;;;;32.80;14.77;;;;;;;6.60;100.00;93487.78;5069376;28;20064;-77
2023/10/30 02:48:29;;;;;;;25.23;11.68;;;;;;;6.44;100.00;93468.38;5071703;28;20084;-77
2023/10/30 02:50:58;;;;;;;25.77;10.73;;;;;;;6.54;100.00;93481.63;5071181;28;20045;-77
2023/10/30 02:53:25;;;;;;;15.02;7.60;;;;;;;6.58;100.00;93494.06;5066840;28;20045;-77
2023/10/30 02:55:52;;;;;;;18.30;8.13;;;;;;;6.40;100.00;93467.91;5066514;28;20052;-77
2023/10/30 02:58:18;;;;;;;16.45;7.38;;;;;;;6.53;100.00;93482.59;5064954;28;20045;-77
2023/10/30 03:00:46;;;;;;;16.15;7.53;;;;;;;6.61;100.00;93491.16;5071599;28;20455;-77
2023/10/30 03:03:13;;;;;;;17.15;8.00;;;;;;;6.61;100.00;93496.25;5069696;28;20056;-77
2023/10/30 03:05:40;;;;;;;21.38;8.50;;;;;;;6.66;100.00;93492.19;5069205;28;20090;-77
2023/10/30 03:08:07;;;;;;;21.23;9.10;;;;;;;6.62;100.00;93492.72;5072516;28;20052;-77
2023/10/30 03:10:33;;;;;;;25.13;9.95;;;;;;;6.70;100.00;93490.06;5064473;28;20049;-76
2023/10/30 03:13:00;;;;;;;28.90;12.70;;;;;;;6.58;100.00;93476.19;5072118;28;20101;-76
2023/10/30 03:15:27;;;;;;;24.33;11.18;;;;;;;6.64;100.00;93483.13;5073526;28;20110;-76
2023/10/30 03:17:55;;;;;;;30.83;12.80;;;;;;;6.59;100.00;93488.78;5069378;28;20105;-77
2023/10/30 03:20:21;;;;;;;27.67;11.60;;;;;;;6.65;100.00;93490.59;5068780;28;20394;-77
2023/10/30 03:22:48;;;;;;;25.15;11.20;;;;;;;6.62;100.00;93497.84;5066855;28;20057;-77
2023/10/30 03:25:15;;;;;;;26.65;11.57;;;;;;;6.59;100.00;93496.44;5068687;28;20212;-76
2023/10/30 03:27:42;;;;;;;21.65;11.38;;;;;;;6.52;100.00;93490.44;5067955;28;20048;-77
2023/10/30 03:30:10;;;;;;;21.08;9.85;;;;;;;6.54;100.00;93503.81;5072120;28;20093;-77
2023/10/30 03:32:37;;;;;;;23.60;10.88;;;;;;;6.32;100.00;93451.91;5071040;28;20481;-77
2023/10/30 03:35:06;;;;;;;24.33;9.85;;;;;;;6.48;100.00;93490.00;5069094;28;20485;-77
2023/10/30 03:37:51;;;;;;;28.25;11.40;;;;;;;6.47;100.00;93495.31;5067477;28;20448;-77
2023/10/30 03:40:18;;;;;;;25.10;9.90;;;;;;;6.17;100.00;93457.03;5071743;28;20459;-77
2023/10/30 03:42:44;;;;;;;30.10;12.65;;;;;;;6.22;100.00;93470.03;5069283;28;20048;-77
2023/10/30 03:45:11;;;;;;;27.45;12.48;;;;;;;6.35;100.00;93502.59;5068630;28;20044;-77
2023/10/30 03:47:38;;;;;;;29.35;12.10;;;;;;;6.36;100.00;93502.44;5069351;28;20353;-76
2023/10/30 03:50:08;;;;;;;26.60;12.63;;;;;;;6.35;100.00;93494.94;5069192;28;20052;-76
2023/10/30 03:52:43;;;;;;;29.50;12.35;;;;;;;6.35;100.00;93500.03;5069968;28;20040;-76
2023/10/30 03:55:10;;;;;;;29.55;12.80;;;;;;;6.27;100.00;93490.72;5068649;28;20048;-76
2023/10/30 03:57:38;;;;;;;24.90;12.13;;;;;;;6.36;100.00;93504.19;5068488;28;20522;-75
2023/10/30 04:00:07;;;;;;;27.27;13.60;;;;;;;6.34;100.00;93508.66;5065782;28;20055;-76
2023/10/30 04:02:33;;;;;;;29.75;14.48;;;;;;;6.24;100.00;93496.16;5072316;28;20147;-76
2023/10/30 04:05:00;;;;;;;34.30;14.60;;;;;;;6.15;100.00;93488.59;5068923;28;20048;-76
2023/10/30 04:07:28;;;;;;;32.60;15.35;;;;;;;6.22;100.00;93505.75;5069832;28;20045;-75
2023/10/30 04:09:55;;;;;;;28.80;13.73;;;;;;;6.24;100.00;93502.06;5072249;28;20045;-76
2023/10/30 04:12:22;;;;;;;36.83;13.77;;;;;;;6.26;100.00;93505.22;5058482;28;20121;-76
2023/10/30 04:14:49;;;;;;;35.13;14.48;;;;;;;6.20;100.00;93494.94;5071669;28;20045;-75
2023/10/30 04:17:16;;;;;;;33.38;14.77;;;;;;;6.17;100.00;93508.03;5069571;28;20048;-75
2023/10/30 04:19:43;;;;;;;31.08;15.45;;;;;;;6.13;100.00;93497.38;5068632;28;20048;-76
2023/10/30 04:22:10;;;;;;;29.75;14.50;;;;;;;6.24;100.00;93511.47;5068704;28;20048;-75
2023/10/30 04:24:38;;;;;;;51.85;26.83;;;;;;;6.27;100.00;93508.56;5065054;28;20045;-76
2023/10/30 04:27:04;;;;;;;29.77;15.27;;;;;;;6.15;100.00;93510.75;5069074;28;20133;-76
2023/10/30 04:29:31;;;;;;;37.28;18.38;;;;;;;6.12;100.00;93518.78;5067259;28;22474;-76
2023/10/30 04:31:58;;;;;;;42.55;20.33;;;;;;;6.05;100.00;93505.09;5072427;28;20051;-76
2023/10/30 04:34:25;;;;;;;38.30;19.17;;;;;;;6.06;100.00;93514.38;5068439;28;20098;-76
2023/10/30 04:36:51;;;;;;;38.65;18.65;;;;;;;6.00;100.00;93508.16;5065145;28;20044;-76
2023/10/30 04:39:19;;;;;;;32.25;15.65;;;;;;;5.95;100.00;93513.78;5068012;28;20505;-76
2023/10/30 04:41:47;;;;;;;30.65;15.23;;;;;;;5.91;100.00;93514.28;5064465;28;20552;-76
2023/10/30 04:44:14;;;;;;;29.38;14.35;;;;;;;5.93;100.00;93513.16;5067410;28;20053;-76
2023/10/30 04:46:40;;;;;;;28.58;14.00;;;;;;;5.98;100.00;93515.97;5068370;28;20455;-76
2023/10/30 04:49:07;;;;;;;32.28;13.25;;;;;;;5.88;100.00;93510.34;5068056;28;20098;-75
2023/10/30 04:51:34;;;;;;;30.63;13.23;;;;;;;5.89;100.00;93519.59;5071630;28;20048;-75
2023/10/30 04:54:01;;;;;;;29.10;12.52;;;;;;;5.82;100.00;93516.91;5069992;28;20134;-75
2023/10/30 04:56:28;;;;;;;25.15;11.48;;;;;;;5.80;100.00;93520.59;5067133;28;20048;-75
2023/10/30 04:58:56;;;;;;;26.10;11.98;;;;;;;5.82;100.00;93521.22;5064154;28;20100;-75
2023/10/30 05:01:22;;;;;;;28.73;11.68;;;;;;;5.86;100.00;93514.81;5067905;28;20049;-76
2023/10/30 05:03:49;;;;;;;28.40;13.43;;;;;;;5.81;100.00;93519.63;5067302;28;20822;-75
2023/10/30 05:06:16;;;;;;;30.40;14.10;;;;;;;5.88;100.00;93516.22;5066196;28;20197;-76
2023/10/30 05:08:42;;;;;;;31.05;12.93;;;;;;;5.81;100.00;93528.09;5068837;28;20048;-75
2023/10/30 05:11:09;;;;;;;26.20;12.35;;;;;;;5.77;100.00;93526.84;5068367;28;20045;-75
2023/10/30 05:13:36;;;;;;;27.35;12.75;;;;;;;5.74;100.00;93527.97;5067331;28;20133;-76
2023/10/30 05:16:05;;;;;;;26.50;12.50;;;;;;;5.78;100.00;93532.75;5066807;28;20101;-76
2023/10/30 05:18:31;;;;;;;26.58;11.00;;;;;;;5.78;100.00;93525.09;5064784;28;20044;-76
2023/10/30 05:20:58;;;;;;;24.92;10.75;;;;;;;5.79;100.00;93531.78;5066446;28;20094;-76
2023/10/30 05:23:25;;;;;;;24.35;10.40;;;;;;;5.76;100.00;93538.00;5069896;28;20052;-75
2023/10/30 05:25:52;;;;;;;25.83;11.25;;;;;;;5.75;100.00;93532.09;5064970;28;20106;-75
2023/10/30 05:28:18;;;;;;;30.30;10.50;;;;;;;5.73;100.00;93541.69;5062953;28;20044;-76
2023/10/30 05:30:45;;;;;;;27.38;10.90;;;;;;;5.73;100.00;93536.59;5063128;28;20153;-76
2023/10/30 05:33:13;;;;;;;25.40;9.63;;;;;;;5.80;100.00;93546.09;5062525;28;20048;-75
2023/10/30 05:35:40;;;;;;;22.65;10.02;;;;;;;5.78;100.00;93548.03;5066198;28;20693;-75
2023/10/30 05:38:06;;;;;;;23.10;9.45;;;;;;;5.74;100.00;93548.38;5063412;28;20094;-76
2023/10/30 05:40:33;;;;;;;24.02;9.68;;;;;;;5.73;100.00;93546.78;5067670;28;20041;-76
2023/10/30 05:43:00;;;;;;;23.70;8.57;;;;;;;5.72;100.00;93545.22;5063831;28;20060;-76
2023/10/30 05:45:26;;;;;;;23.00;9.60;;;;;;;5.81;100.00;93547.69;5062560;28;20095;-76
2023/10/30 05:47:53;;;;;;;26.25;11.30;;;;;;;5.88;100.00;93546.81;5062042;28;20078;-76
2023/10/30 05:50:21;;;;;;;34.53;16.88;;;;;;;6.03;100.00;93550.41;5064930;28;20455;-75
2023/10/30 05:52:48;;;;;;;24.90;11.15;;;;;;;6.08;100.00;93560.88;5062342;28;20044;-76
2023/10/30 05:55:15;;;;;;;29.35;11.02;;;;;;;6.14;100.00;93555.88;5065149;28;20045;-75
2023/10/30 05:57:45;;;;;;;25.00;10.35;;;;;;;6.27;100.00;93550.19;5064889;28;20106;-75
2023/10/30 06:00:13;;;;;;;26.55;11.45;;;;;;;6.26;100.00;93538.38;5059502;28;20052;-75
2023/10/30 06:02:40;;;;;;;21.23;11.20;;;;;;;6.42;100.00;93554.50;5063987;28;20053;-75
2023/10/30 06:05:08;;;;;;;28.17;11.98;;;;;;;6.58;100.00;93560.41;5066735;28;20048;-75
2023/10/30 06:07:36;;;;;;;24.10;11.45;;;;;;;6.64;100.00;93557.16;5065510;28;20059;-76
2023/10/30 06:10:04;;;;;;;29.42;13.88;;;;;;;6.67;100.00;93555.03;5065344;28;20048;-76
2023/10/30 06:12:31;;;;;;;28.30;11.45;;;;;;;6.77;100.00;93564.19;5062564;28;20127;-76
2023/10/30 06:14:58;;;;;;;26.20;10.93;;;;;;;6.85;100.00;93570.97;5063278;28;20074;-76
2023/10/30 06:17:24;;;;;;;27.42;12.50;;;;;;;6.95;100.00;93566.38;5066044;28;20109;-76
2023/10/30 06:19:53;;;;;;;43.08;16.73;;;;;;;7.00;100.00;93561.53;5064192;28;20123;-76
2023/10/30 06:22:21;;;;;;;46.08;16.90;;;;;;;6.95;100.00;93556.94;5062076;28;20048;-76
2023/10/30 06:24:49;;;;;;;42.35;17.65;;;;;;;7.11;100.00;93572.25;5062083;28;20060;-76
2023/10/30 06:27:15;;;;;;;36.33;17.90;;;;;;;7.20;100.00;93576.28;5065982;28;20056;-76
2023/10/30 06:29:42;;;;;;;34.92;16.92;;;;;;;7.27;100.00;93574.59;5066365;28;20048;-76
2023/10/30 06:32:09;;;;;;;34.80;16.52;;;;;;;7.37;100.00;93573.53;5062849;28;20048;-76
2023/10/30 06:34:38;;;;;;;34.75;16.88;;;;;;;7.44;100.00;93577.72;5067455;28;20037;-76
2023/10/30 06:37:05;;;;;;;30.85;15.50;;;;;;;7.59;100.00;93574.34;5064533;28;20135;-76
2023/10/30 06:39:32;;;;;;;29.10;14.38;;;;;;;7.75;100.00;93586.09;5063583;28;20451;-76
2023/10/30 06:42:00;;;;;;;29.52;14.63;;;;;;;7.85;100.00;93575.56;5068303;28;20048;-76
2023/10/30 06:44:27;;;;;;;32.38;14.38;;;;;;;7.93;100.00;93579.75;5062931;28;20052;-76
2023/10/30 06:46:58;;;;;;;24.98;11.93;;;;;;;7.88;100.00;93564.97;5061605;28;20631;-76
2023/10/30 06:49:24;;;;;;;25.42;11.43;;;;;;;8.10;100.00;93572.63;5065886;28;20049;-76
2023/10/30 06:51:51;;;;;;;28.00;13.35;;;;;;;8.14;100.00;93566.13;5064860;28;20045;-76
2023/10/30 06:54:18;;;;;;;25.58;13.15;;;;;;;8.26;100.00;93566.44;5064805;28;20094;-76
2023/10/30 06:56:44;;;;;;;23.77;12.13;;;;;;;8.39;100.00;93565.75;5063835;28;20049;-76
2023/10/30 06:59:14;;;;;;;20.33;9.35;;;;;;;8.52;100.00;93553.03;5063449;28;20086;-76
2023/10/30 07:01:42;;;;;;;21.05;10.38;;;;;;;8.73;100.00;93555.72;5066082;28;20052;-77
2023/10/30 07:04:09;;;;;;;21.63;9.77;;;;;;;8.98;100.00;93557.81;5062188;28;20048;-77
2023/10/30 07:06:36;;;;;;;15.75;6.35;;;;;;;9.20;100.00;93556.72;5063073;28;20041;-77
2023/10/30 07:09:02;;;;;;;19.05;8.45;;;;;;;9.36;100.00;93554.78;5059599;28;20641;-77
2023/10/30 07:11:29;;;;;;;27.10;10.60;;;;;;;9.55;100.00;93560.94;5060312;28;20443;-76
2023/10/30 07:13:56;;;;;;;24.92;10.88;;;;;;;9.59;100.00;93540.84;5063167;28;20037;-77
2023/10/30 07:16:25;;;;;;;23.10;10.32;;;;;;;9.86;100.00;93556.25;5067406;28;20131;-77
2023/10/30 07:18:52;;;;;;;20.05;8.15;;;;;;;9.98;100.00;93562.38;5064386;28;20044;-77
2023/10/30 07:21:19;;;;;;;17.20;8.10;;;;;;;10.11;100.00;93553.09;5067332;28;20056;-77
2023/10/30 07:23:46;;;;;;;19.38;10.40;;;;;;;10.28;100.00;93558.63;5069792;28;20041;-77
2023/10/30 07:26:12;;;;;;;23.30;12.45;;;;;;;10.31;100.00;93558.22;5067712;28;20109;-77
2023/10/30 07:28:39;;;;;;;26.67;11.80;;;;;;;10.38;100.00;93559.00;5064941;28;20040;-76
2023/10/30 07:31:06;;;;;;;33.10;14.32;;;;;;;10.35;100.00;93551.69;5068080;28;20045;-76
2023/10/30 07:33:34;;;;;;;27.08;12.73;;;;;;;10.37;100.00;93557.41;5067853;28;20040;-76
2023/10/30 07:36:01;;;;;;;28.95;9.82;;;;;;;10.54;100.00;93547.56;5066316;28;20484;-76
2023/10/30 07:38:28;;;;;;;24.70;10.20;;;;;;;10.73;100.00;93545.13;5063352;28;20060;-76
2023/10/30 07:40:55;;;;;;;25.02;9.35;;;;;;;10.88;100.00;93547.47;5064322;28;20052;-76
2023/10/30 07:43:22;;;;;;;26.77;9.80;;;;;;;11.07;100.00;93545.81;5063987;28;20345;-76
2023/10/30 07:45:50;;;;;;;27.42;10.18;;;;;;;11.29;100.00;93544.75;5065674;28;20150;-77
2023/10/30 07:48:17;;;;;;;30.48;10.40;;;;;;;11.38;100.00;93543.50;5067681;28;20135;-76
2023/10/30 07:50:45;;;;;;;33.33;10.18;;;;;;;11.57;98.03;93554.69;5066588;28;20041;-77
2023/10/30 07:53:12;;;;;;;34.85;12.77;;;;;;;11.64;98.29;93557.22;5064244;28;20040;-77
2023/10/30 07:55:39;;;;;;;35.90;11.98;;;;;;;11.84;99.42;93543.41;5069458;28;20043;-76
2023/10/30 07:58:06;;;;;;;43.08;13.23;;;;;;;12.12;98.90;93553.34;5062267;28;20041;-76
2023/10/30 08:00:33;;;;;;;36.85;13.65;;;;;;;12.23;96.21;93558.81;5066907;28;20071;-77
2023/10/30 08:03:00;;;;;;;33.88;14.15;;;;;;;12.49;96.30;93551.88;5068595;28;20040;-76
2023/10/30 08:05:27;;;;;;;41.55;15.23;;;;;;;12.64;94.76;93536.06;5065620;28;20084;-77
2023/10/30 08:07:56;;;;;;;44.83;13.48;;;;;;;12.88;92.86;93554.25;5064644;28;20512;-76
2023/10/30 08:10:41;;;;;;;38.90;15.02;;;;;;;13.05;92.18;93526.88;5065637;28;20754;-77
2023/10/30 08:13:07;;;;;;;39.05;14.70;;;;;;;13.35;91.75;93544.19;5065134;28;20056;-77
2023/10/30 08:15:34;;;;;;;38.88;13.68;;;;;;;13.59;89.38;93546.06;5066536;28;20045;-77
2023/10/30 08:18:03;;;;;;;41.13;13.60;;;;;;;13.74;87.33;93543.88;5064321;28;20560;-77
2023/10/30 08:20:42;;;;;;;37.30;13.68;;;;;;;13.65;86.48;93528.94;5063928;28;20080;-77
2023/10/30 08:23:10;;;;;;;35.97;14.00;;;;;;;13.98;87.83;93548.31;5066917;28;20041;-77
2023/10/30 08:25:37;;;;;;;39.75;13.88;;;;;;;14.25;87.83;93545.28;5067444;28;20048;-77
2023/10/30 08:28:04;;;;;;;35.60;13.25;;;;;;;14.40;83.77;93553.41;5070177;28;20040;-77
2023/10/30 08:30:45;;;;;;;38.38;13.25;;;;;;;14.24;84.16;93541.13;5065335;28;20048;-77
2023/10/30 08:33:18;;;;;;;41.38;14.68;;;;;;;14.53;84.20;93541.25;5066637;28;20045;-77
2023/10/30 08:35:46;;;;;;;46.25;14.80;;;;;;;14.36;83.00;93523.06;5065866;28;20587;-77
2023/10/30 08:38:14;;;;;;;44.50;15.98;;;;;;;14.49;82.91;93525.41;5069105;28;20052;-77
2023/10/30 08:40:41;;;;;;;43.63;15.02;;;;;;;13.81;82.16;93403.56;5068044;28;20543;-77
2023/10/30 08:43:08;;;;;;;44.97;15.25;;;;;;;14.96;80.95;93544.50;5072151;28;20049;-77
2023/10/30 08:45:35;;;;;;;40.55;14.43;;;;;;;15.12;79.84;93534.44;5067884;28;20066;-77
2023/10/30 08:48:02;;;;;;;48.92;17.55;;;;;;;15.26;78.80;93547.91;5068359;28;20044;-77
2023/10/30 08:50:29;;;;;;;58.15;17.90;;;;;;;15.48;81.06;93538.50;5072129;28;20101;-77
2023/10/30 08:52:55;;;;;;;43.70;16.13;;;;;;;15.71;78.39;93547.16;5070246;28;20072;-77
2023/10/30 08:55:24;;;;;;;44.00;13.93;;;;;;;15.89;77.72;93545.38;5066049;28;20044;-77
2023/10/30 08:57:50;;;;;;;48.78;15.88;;;;;;;16.05;76.17;93543.84;5067082;28;20044;-77
2023/10/30 09:00:17;;;;;;;44.30;15.35;;;;;;;16.22;76.06;93527.50;5068554;28;20121;-77
2023/10/30 09:02:44;;;;;;;38.78;12.52;;;;;;;16.50;75.65;93533.59;5065857;28;20504;-77
2023/10/30 09:05:11;;;;;;;46.28;14.32;;;;;;;16.74;74.87;93541.19;5067136;28;20716;-77
2023/10/30 09:07:38;;;;;;;42.88;13.88;;;;;;;16.76;71.44;93534.72;5071058;28;20490;-77
2023/10/30 09:10:05;;;;;;;41.30;12.57;;;;;;;16.84;71.44;93533.53;5067254;28;20056;-77
2023/10/30 09:12:33;;;;;;;41.60;13.48;;;;;;;17.07;71.92;93529.16;5067631;28;20044;-77
2023/10/30 09:15:00;;;;;;;36.45;13.32;;;;;;;17.22;70.95;93523.38;5069104;28;20102;-77
2023/10/30 09:17:26;;;;;;;42.28;14.98;;;;;;;17.40;69.13;93521.47;5068267;28;20057;-77
2023/10/30 09:19:53;;;;;;;39.47;13.70;;;;;;;17.56;69.09;93512.81;5065855;28;20098;-77
2023/10/30 09:22:20;;;;;;;38.72;12.35;;;;;;;17.74;67.17;93508.28;5066753;28;20401;-77
2023/10/30 09:24:46;;;;;;;32.72;12.05;;;;;;;18.00;68.31;93517.06;5069547;28;20139;-77
2023/10/30 09:27:13;;;;;;;39.35;11.65;;;;;;;18.11;67.98;93499.78;5065910;28;20093;-77
2023/10/30 09:29:42;;;;;;;31.38;11.32;;;;;;;18.52;68.84;93511.47;5065209;28;20045;-77
2023/10/30 09:32:08;;;;;;;29.33;10.43;;;;;;;18.83;66.26;93514.22;5064057;28;20048;-77
2023/10/30 09:34:35;;;;;;;33.63;8.55;;;;;;;19.01;65.77;93486.97;5068315;28;20403;-77
2023/10/30 09:37:02;;;;;;;16.00;5.80;;;;;;;19.40;63.65;93503.25;5068635;28;20087;-77
2023/10/30 09:39:29;;;;;;;21.52;4.65;;;;;;;19.63;62.28;93494.19;5066434;28;20489;-77
2023/10/30 09:41:59;;;;;;;9.27;1.33;;;;;;;19.84;58.63;93502.00;5065672;28;20048;-77
2023/10/30 09:44:26;;;;;;;5.93;1.52;;;;;;;19.95;57.69;93485.31;5071418;28;20496;-77
2023/10/30 09:46:55;;;;;;;2.28;0.82;;;;;;;20.16;57.32;93496.56;5065995;28;20552;-77
2023/10/30 09:49:23;;;;;;;3.58;1.00;;;;;;;20.26;56.67;93484.53;5066745;28;20822;-76
2023/10/30 09:51:52;;;;;;;5.28;1.17;;;;;;;20.48;54.86;93488.66;5066654;28;20102;-76
2023/10/30 09:54:19;;;;;;;6.30;1.30;;;;;;;20.60;55.15;93488.38;5067044;28;20094;-77
2023/10/30 09:56:46;;;;;;;2.28;0.70;;;;;;;20.65;53.55;93486.53;5066568;28;20040;-77
2023/10/30 09:59:16;;;;;;;2.10;0.70;;;;;;;20.75;53.74;93487.53;5068197;28;20448;-76
2023/10/30 10:01:42;;;;;;;2.60;0.90;;;;;;;20.78;53.11;93487.78;5066793;28;20518;-76
2023/10/30 10:04:10;;;;;;;7.70;0.88;;;;;;;20.93;52.87;93481.75;5065406;28;20052;-77
2023/10/30 10:06:39;;;;;;;3.33;0.70;;;;;;;20.98;52.37;93483.59;5067765;28;20105;-76
2023/10/30 10:09:06;;;;;;;5.72;1.20;;;;;;;21.06;52.02;93466.56;5067135;28;20131;-76
2023/10/30 10:11:33;;;;;;;3.25;0.70;;;;;;;21.04;51.09;93472.06;5068932;28;20048;-76
2023/10/30 10:14:00;;;;;;;3.20;0.73;;;;;;;21.09;50.86;93477.25;5065532;28;20157;-77
2023/10/30 10:16:29;;;;;;;3.22;0.60;;;;;;;21.03;48.93;93454.84;5069892;28;20044;-76
2023/10/30 10:18:55;;;;;;;2.50;0.98;;;;;;;21.22;49.94;93468.06;5063651;28;20393;-77
2023/10/30 10:21:23;;;;;;;10.50;1.38;;;;;;;21.30;50.38;93463.31;5065569;28;20044;-77
2023/10/30 10:23:50;;;;;;;3.38;0.77;;;;;;;21.40;50.19;93459.84;5065673;28;20044;-77
2023/10/30 10:26:17;;;;;;;6.88;1.00;;;;;;;21.42;49.49;93470.81;5066458;28;20052;-76
2023/10/30 10:28:45;;;;;;;3.67;0.60;;;;;;;21.42;48.62;93445.47;5068907;28;20045;-76
2023/10/30 10:31:12;;;;;;;2.70;0.70;;;;;;;21.59;48.02;93452.13;5066526;28;20385;-76
2023/10/30 10:33:39;;;;;;;4.97;0.70;;;;;;;21.59;48.66;93454.75;5071568;28;20053;-80
2023/10/30 10:36:07;;;;;;;6.40;1.00;;;;;;;21.68;47.15;93457.56;5069361;28;20072;-78
2023/10/30 10:38:36;;;;;;;2.13;0.57;;;;;;;21.73;48.28;93466.19;5068243;28;20040;-77
2023/10/30 10:41:05;;;;;;;3.13;0.73;;;;;;;21.64;48.10;93446.88;5064295;28;20053;-78
2023/10/30 10:43:33;;;;;;;2.15;0.60;;;;;;;21.76;48.05;93457.03;5065477;28;20080;-77
2023/10/30 10:46:00;;;;;;;6.57;0.85;;;;;;;21.72;46.78;93443.69;5065790;28;20447;-77
2023/10/30 10:48:28;;;;;;;5.03;1.05;;;;;;;21.74;46.83;93428.53;5063641;28;20059;-78
2023/10/30 10:50:56;;;;;;;3.60;0.80;;;;;;;21.82;47.07;93442.06;5062889;28;20138;-76
2023/10/30 10:53:27;;;;;;;3.60;0.80;;;;;;;21.91;45.61;93444.84;5063921;28;20385;-77
2023/10/30 10:56:04;;;;;;;1.80;0.60;;;;;;;21.99;45.49;93446.91;5072993;28;20045;-77
2023/10/30 10:58:40;;;;;;;1.95;0.65;;;;;;;22.05;45.68;93445.78;5071127;28;20048;-77
2023/10/30 11:01:09;;;;;;;3.78;0.80;;;;;;;22.20;44.43;93451.91;5068820;28;20518;-77
2023/10/30 11:03:38;;;;;;;1.90;0.68;;;;;;;22.20;44.21;93444.06;5068663;28;20544;-77
2023/10/30 11:06:06;;;;;;;5.10;0.77;;;;;;;22.23;43.54;93452.16;5067682;28;20051;-77
2023/10/30 11:08:49;;;;;;;3.65;0.70;;;;;;;22.29;42.55;93450.25;5067788;28;20052;-77
2023/10/30 11:11:21;;;;;;;2.58;0.70;;;;;;;22.21;42.97;93432.56;5068445;28;20131;-77
2023/10/30 11:14:12;;;;;;;3.30;0.90;;;;;;;22.24;42.77;93440.63;5069936;28;20049;-77
2023/10/30 11:16:46;;;;;;;1.75;0.50;;;;;;;22.29;43.42;93437.97;5067021;28;20052;-77
2023/10/30 11:19:12;;;;;;;3.28;0.80;;;;;;;22.38;43.11;93425.06;5068757;28;20037;-77
2023/10/30 11:21:41;;;;;;;2.40;0.70;;;;;;;22.45;43.25;93421.31;5067038;28;20493;-77
2023/10/30 11:24:08;;;;;;;4.93;0.95;;;;;;;22.59;43.18;93427.47;5070126;28;20040;-78
2023/10/30 11:26:43;;;;;;;2.92;0.88;;;;;;;22.51;42.16;93407.13;5069010;28;20412;-77